sensor_id;sensor_type;location;lat;lon;timestamp;P1;durP1;ratioP1;P2;durP2;ratioP2
37763;SDS011;23602;51.084;7.090;2022-10-31T00:01:26;12.02;;;5.97;;
37763;SDS011;23602;51.084;7.090;2022-10-31T00:03:54;13.93;;;6.95;;
37763;SDS011;23602;51.084;7.090;2022-10-31T00:06:20;14.35;;;5.85;;
37763;SDS011;23602;51.084;7.090;2022-10-31T00:08:52;22.33;;;6.55;;
37763;SDS011;23602;51.084;7.090;2022-10-31T00:11:19;20.27;;;7.00;;
37763;SDS011;23602;51.084;7.090;2022-10-31T00:13:44;14.65;;;6.78;;
37763;SDS011;23602;51.084;7.090;2022-10-31T00:16:13;14.23;;;5.85;;
37763;SDS011;23602;51.084;7.090;2022-10-31T00:18:42;17.35;;;6.70;;
37763;SDS011;23602;51.084;7.090;2022-10-31T00:21:08;10.93;;;5.70;;
37763;SDS011;23602;51.084;7.090;2022-10-31T00:23:33;13.30;;;6.15;;
37763;SDS011;23602;51.084;7.090;2022-10-31T00:26:02;16.52;;;6.45;;
37763;SDS011;23602;51.084;7.090;2022-10-31T00:28:29;14.18;;;6.28;;
37763;SDS011;23602;51.084;7.090;2022-10-31T00:30:58;17.50;;;6.30;;
37763;SDS011;23602;51.084;7.090;2022-10-31T00:33:27;18.05;;;6.32;;
37763;SDS011;23602;51.084;7.090;2022-10-31T00:35:53;14.05;;;6.68;;
37763;SDS011;23602;51.084;7.090;2022-10-31T00:38:19;22.90;;;7.45;;
37763;SDS011;23602;51.084;7.090;2022-10-31T00:40:45;19.25;;;6.50;;
37763;SDS011;23602;51.084;7.090;2022-10-31T00:43:10;15.00;;;6.63;;
37763;SDS011;23602;51.084;7.090;2022-10-31T00:45:35;14.07;;;6.97;;
37763;SDS011;23602;51.084;7.090;2022-10-31T00:48:01;18.05;;;7.07;;
37763;SDS011;23602;51.084;7.090;2022-10-31T00:50:26;12.70;;;6.78;;
37763;SDS011;23602;51.084;7.090;2022-10-31T00:52:51;17.75;;;6.82;;
37763;SDS011;23602;51.084;7.090;2022-10-31T00:55:17;17.40;;;8.25;;
37763;SDS011;23602;51.084;7.090;2022-10-31T00:57:42;17.20;;;6.53;;
37763;SDS011;23602;51.084;7.090;2022-10-31T01:00:07;11.20;;;7.05;;
37763;SDS011;23602;51.084;7.090;2022-10-31T01:02:33;20.02;;;6.78;;
37763;SDS011;23602;51.084;7.090;2022-10-31T01:04:58;16.55;;;7.40;;
37763;SDS011;23602;51.084;7.090;2022-10-31T01:07:24;19.65;;;6.38;;
37763;SDS011;23602;51.084;7.090;2022-10-31T01:09:49;19.35;;;7.65;;
37763;SDS011;23602;51.084;7.090;2022-10-31T01:12:14;15.70;;;6.60;;
37763;SDS011;23602;51.084;7.090;2022-10-31T01:14:43;13.88;;;7.22;;
37763;SDS011;23602;51.084;7.090;2022-10-31T01:17:10;24.23;;;6.43;;
37763;SDS011;23602;51.084;7.090;2022-10-31T01:19:35;17.50;;;7.00;;
37763;SDS011;23602;51.084;7.090;2022-10-31T01:22:00;19.05;;;6.82;;
37763;SDS011;23602;51.084;7.090;2022-10-31T01:24:26;14.65;;;7.68;;
37763;SDS011;23602;51.084;7.090;2022-10-31T01:26:51;13.40;;;6.97;;
37763;SDS011;23602;51.084;7.090;2022-10-31T01:29:16;13.65;;;6.63;;
37763;SDS011;23602;51.084;7.090;2022-10-31T01:31:42;18.80;;;6.70;;
37763;SDS011;23602;51.084;7.090;2022-10-31T01:34:14;17.33;;;6.93;;
37763;SDS011;23602;51.084;7.090;2022-10-31T01:36:41;13.35;;;6.78;;
37763;SDS011;23602;51.084;7.090;2022-10-31T01:39:08;13.82;;;7.53;;
37763;SDS011;23602;51.084;7.090;2022-10-31T01:41:37;19.67;;;7.30;;
37763;SDS011;23602;51.084;7.090;2022-10-31T01:52:07;17.52;;;8.10;;
37763;SDS011;23602;51.084;7.090;2022-10-31T01:54:37;17.95;;;6.82;;
37763;SDS011;23602;51.084;7.090;2022-10-31T01:57:05;12.05;;;6.63;;
37763;SDS011;23602;51.084;7.090;2022-10-31T01:59:35;12.43;;;6.88;;
37763;SDS011;23602;51.084;7.090;2022-10-31T02:02:05;17.27;;;6.97;;
37763;SDS011;23602;51.084;7.090;2022-10-31T02:04:34;13.48;;;6.40;;
37763;SDS011;23602;51.084;7.090;2022-10-31T02:07:20;12.05;;;6.90;;
37763;SDS011;23602;51.084;7.090;2022-10-31T02:09:50;16.05;;;6.53;;
37763;SDS011;23602;51.084;7.090;2022-10-31T02:12:17;17.17;;;8.18;;
37763;SDS011;23602;51.084;7.090;2022-10-31T02:14:43;16.20;;;9.45;;
37763;SDS011;23602;51.084;7.090;2022-10-31T02:17:09;13.65;;;7.07;;
37763;SDS011;23602;51.084;7.090;2022-10-31T02:22:24;14.77;;;6.95;;
37763;SDS011;23602;51.084;7.090;2022-10-31T02:25:02;20.07;;;6.90;;
37763;SDS011;23602;51.084;7.090;2022-10-31T02:27:36;20.33;;;7.78;;
37763;SDS011;23602;51.084;7.090;2022-10-31T02:30:29;21.83;;;7.60;;
37763;SDS011;23602;51.084;7.090;2022-10-31T02:33:18;11.77;;;6.57;;
37763;SDS011;23602;51.084;7.090;2022-10-31T02:36:04;18.38;;;6.85;;
37763;SDS011;23602;51.084;7.090;2022-10-31T02:38:51;13.50;;;6.97;;
37763;SDS011;23602;51.084;7.090;2022-10-31T02:52:01;14.40;;;8.23;;
37763;SDS011;23602;51.084;7.090;2022-10-31T02:54:27;13.68;;;7.78;;
37763;SDS011;23602;51.084;7.090;2022-10-31T02:57:02;13.63;;;7.30;;
37763;SDS011;23602;51.084;7.090;2022-10-31T02:59:31;15.38;;;6.68;;
37763;SDS011;23602;51.084;7.090;2022-10-31T03:04:54;15.48;;;6.85;;
37763;SDS011;23602;51.084;7.090;2022-10-31T03:07:38;16.75;;;7.95;;
37763;SDS011;23602;51.084;7.090;2022-10-31T03:15:36;17.10;;;7.28;;
37763;SDS011;23602;51.084;7.090;2022-10-31T03:18:17;16.42;;;7.35;;
37763;SDS011;23602;51.084;7.090;2022-10-31T03:21:27;15.52;;;7.70;;
37763;SDS011;23602;51.084;7.090;2022-10-31T03:23:51;12.63;;;7.10;;
37763;SDS011;23602;51.084;7.090;2022-10-31T03:26:19;16.45;;;8.20;;
37763;SDS011;23602;51.084;7.090;2022-10-31T03:28:49;16.50;;;8.25;;
37763;SDS011;23602;51.084;7.090;2022-10-31T03:31:20;18.45;;;8.52;;
37763;SDS011;23602;51.084;7.090;2022-10-31T03:33:50;11.90;;;7.65;;
37763;SDS011;23602;51.084;7.090;2022-10-31T03:36:16;17.02;;;7.93;;
37763;SDS011;23602;51.084;7.090;2022-10-31T03:38:43;18.65;;;8.50;;
37763;SDS011;23602;51.084;7.090;2022-10-31T03:41:13;16.17;;;7.47;;
37763;SDS011;23602;51.084;7.090;2022-10-31T03:43:44;13.90;;;7.13;;
37763;SDS011;23602;51.084;7.090;2022-10-31T03:46:24;19.92;;;8.05;;
37763;SDS011;23602;51.084;7.090;2022-10-31T03:48:50;14.95;;;8.65;;
37763;SDS011;23602;51.084;7.090;2022-10-31T03:51:26;15.18;;;7.40;;
37763;SDS011;23602;51.084;7.090;2022-10-31T03:54:03;22.45;;;9.63;;
37763;SDS011;23602;51.084;7.090;2022-10-31T03:56:35;13.68;;;8.40;;
37763;SDS011;23602;51.084;7.090;2022-10-31T03:59:05;21.30;;;7.78;;
37763;SDS011;23602;51.084;7.090;2022-10-31T04:01:38;17.25;;;8.65;;
37763;SDS011;23602;51.084;7.090;2022-10-31T04:04:10;18.13;;;8.95;;
37763;SDS011;23602;51.084;7.090;2022-10-31T04:06:36;16.73;;;8.57;;
37763;SDS011;23602;51.084;7.090;2022-10-31T04:09:05;18.65;;;8.77;;
37763;SDS011;23602;51.084;7.090;2022-10-31T04:11:34;19.05;;;9.23;;
37763;SDS011;23602;51.084;7.090;2022-10-31T04:14:05;20.05;;;8.48;;
37763;SDS011;23602;51.084;7.090;2022-10-31T04:16:32;18.25;;;10.57;;
37763;SDS011;23602;51.084;7.090;2022-10-31T04:18:57;15.27;;;7.85;;
37763;SDS011;23602;51.084;7.090;2022-10-31T04:21:26;14.82;;;8.23;;
37763;SDS011;23602;51.084;7.090;2022-10-31T04:23:53;22.17;;;8.90;;
37763;SDS011;23602;51.084;7.090;2022-10-31T04:26:18;14.63;;;8.38;;
37763;SDS011;23602;51.084;7.090;2022-10-31T04:28:44;18.38;;;8.75;;
37763;SDS011;23602;51.084;7.090;2022-10-31T04:31:10;15.85;;;8.50;;
37763;SDS011;23602;51.084;7.090;2022-10-31T04:33:36;19.48;;;10.55;;
37763;SDS011;23602;51.084;7.090;2022-10-31T04:36:02;15.65;;;8.55;;
37763;SDS011;23602;51.084;7.090;2022-10-31T04:38:27;12.85;;;7.85;;
37763;SDS011;23602;51.084;7.090;2022-10-31T04:40:53;19.95;;;8.75;;
37763;SDS011;23602;51.084;7.090;2022-10-31T04:43:18;22.77;;;7.85;;
37763;SDS011;23602;51.084;7.090;2022-10-31T04:45:43;15.23;;;8.10;;
37763;SDS011;23602;51.084;7.090;2022-10-31T04:48:11;16.55;;;7.53;;
37763;SDS011;23602;51.084;7.090;2022-10-31T04:50:37;17.40;;;8.85;;
37763;SDS011;23602;51.084;7.090;2022-10-31T04:53:04;19.13;;;8.50;;
37763;SDS011;23602;51.084;7.090;2022-10-31T04:55:30;17.52;;;8.50;;
37763;SDS011;23602;51.084;7.090;2022-10-31T04:57:55;23.65;;;8.30;;
37763;SDS011;23602;51.084;7.090;2022-10-31T05:00:21;19.92;;;8.30;;
37763;SDS011;23602;51.084;7.090;2022-10-31T05:02:47;13.77;;;8.20;;
37763;SDS011;23602;51.084;7.090;2022-10-31T05:05:23;18.85;;;9.10;;
37763;SDS011;23602;51.084;7.090;2022-10-31T05:07:50;17.65;;;8.35;;
37763;SDS011;23602;51.084;7.090;2022-10-31T05:10:18;15.90;;;9.20;;
37763;SDS011;23602;51.084;7.090;2022-10-31T05:12:46;21.23;;;9.00;;
37763;SDS011;23602;51.084;7.090;2022-10-31T05:15:15;19.50;;;9.55;;
37763;SDS011;23602;51.084;7.090;2022-10-31T05:17:41;19.88;;;9.93;;
37763;SDS011;23602;51.084;7.090;2022-10-31T05:20:07;21.98;;;8.90;;
37763;SDS011;23602;51.084;7.090;2022-10-31T05:22:33;23.73;;;10.00;;
37763;SDS011;23602;51.084;7.090;2022-10-31T05:24:58;22.25;;;9.10;;
37763;SDS011;23602;51.084;7.090;2022-10-31T05:27:23;15.15;;;9.68;;
37763;SDS011;23602;51.084;7.090;2022-10-31T05:29:49;25.48;;;10.48;;
37763;SDS011;23602;51.084;7.090;2022-10-31T05:32:14;22.05;;;10.48;;
37763;SDS011;23602;51.084;7.090;2022-10-31T05:34:39;20.17;;;9.77;;
37763;SDS011;23602;51.084;7.090;2022-10-31T05:37:04;19.65;;;9.57;;
37763;SDS011;23602;51.084;7.090;2022-10-31T05:39:30;17.85;;;9.50;;
37763;SDS011;23602;51.084;7.090;2022-10-31T05:41:55;21.10;;;9.90;;
37763;SDS011;23602;51.084;7.090;2022-10-31T05:44:20;21.85;;;11.77;;
37763;SDS011;23602;51.084;7.090;2022-10-31T05:46:46;18.88;;;10.35;;
37763;SDS011;23602;51.084;7.090;2022-10-31T05:49:11;18.15;;;10.38;;
37763;SDS011;23602;51.084;7.090;2022-10-31T05:51:37;22.13;;;10.63;;
37763;SDS011;23602;51.084;7.090;2022-10-31T05:54:02;19.23;;;10.07;;
37763;SDS011;23602;51.084;7.090;2022-10-31T05:56:28;21.15;;;9.95;;
37763;SDS011;23602;51.084;7.090;2022-10-31T05:58:53;20.48;;;9.85;;
37763;SDS011;23602;51.084;7.090;2022-10-31T06:01:19;20.50;;;10.80;;
37763;SDS011;23602;51.084;7.090;2022-10-31T06:03:44;21.42;;;10.73;;
37763;SDS011;23602;51.084;7.090;2022-10-31T06:06:09;19.70;;;9.85;;
37763;SDS011;23602;51.084;7.090;2022-10-31T06:08:35;24.63;;;10.95;;
37763;SDS011;23602;51.084;7.090;2022-10-31T06:11:01;19.13;;;9.48;;
37763;SDS011;23602;51.084;7.090;2022-10-31T06:13:26;20.83;;;9.27;;
37763;SDS011;23602;51.084;7.090;2022-10-31T06:15:51;20.55;;;9.75;;
37763;SDS011;23602;51.084;7.090;2022-10-31T06:18:16;21.60;;;9.82;;
37763;SDS011;23602;51.084;7.090;2022-10-31T06:20:42;23.58;;;10.20;;
37763;SDS011;23602;51.084;7.090;2022-10-31T06:23:07;19.48;;;9.45;;
37763;SDS011;23602;51.084;7.090;2022-10-31T06:25:32;18.85;;;10.20;;
37763;SDS011;23602;51.084;7.090;2022-10-31T06:27:58;25.13;;;10.60;;
37763;SDS011;23602;51.084;7.090;2022-10-31T06:30:24;24.70;;;10.25;;
37763;SDS011;23602;51.084;7.090;2022-10-31T06:32:49;22.17;;;9.20;;
37763;SDS011;23602;51.084;7.090;2022-10-31T06:35:15;25.98;;;10.50;;
37763;SDS011;23602;51.084;7.090;2022-10-31T06:37:40;18.63;;;10.02;;
37763;SDS011;23602;51.084;7.090;2022-10-31T06:40:06;23.52;;;10.27;;
37763;SDS011;23602;51.084;7.090;2022-10-31T06:42:31;20.67;;;10.30;;
37763;SDS011;23602;51.084;7.090;2022-10-31T06:44:57;19.25;;;10.27;;
37763;SDS011;23602;51.084;7.090;2022-10-31T06:47:27;16.50;;;9.30;;
37763;SDS011;23602;51.084;7.090;2022-10-31T06:49:52;15.45;;;9.88;;
37763;SDS011;23602;51.084;7.090;2022-10-31T06:52:18;15.95;;;9.27;;
37763;SDS011;23602;51.084;7.090;2022-10-31T06:54:49;21.02;;;9.20;;
37763;SDS011;23602;51.084;7.090;2022-10-31T06:57:14;18.90;;;10.02;;
37763;SDS011;23602;51.084;7.090;2022-10-31T06:59:40;19.30;;;9.55;;
37763;SDS011;23602;51.084;7.090;2022-10-31T07:02:07;17.27;;;9.57;;
37763;SDS011;23602;51.084;7.090;2022-10-31T07:04:34;16.02;;;9.13;;
37763;SDS011;23602;51.084;7.090;2022-10-31T07:06:59;14.73;;;9.63;;
37763;SDS011;23602;51.084;7.090;2022-10-31T07:09:24;17.50;;;10.05;;
37763;SDS011;23602;51.084;7.090;2022-10-31T07:11:51;16.80;;;9.50;;
37763;SDS011;23602;51.084;7.090;2022-10-31T07:14:17;22.65;;;10.20;;
37763;SDS011;23602;51.084;7.090;2022-10-31T07:16:43;16.10;;;9.48;;
37763;SDS011;23602;51.084;7.090;2022-10-31T07:19:08;21.48;;;10.82;;
37763;SDS011;23602;51.084;7.090;2022-10-31T07:21:33;17.25;;;9.98;;
37763;SDS011;23602;51.084;7.090;2022-10-31T07:23:59;23.67;;;11.13;;
37763;SDS011;23602;51.084;7.090;2022-10-31T07:26:24;21.58;;;10.05;;
37763;SDS011;23602;51.084;7.090;2022-10-31T07:28:49;22.20;;;11.32;;
37763;SDS011;23602;51.084;7.090;2022-10-31T07:31:14;26.27;;;15.13;;
37763;SDS011;23602;51.084;7.090;2022-10-31T07:33:40;35.30;;;15.60;;
37763;SDS011;23602;51.084;7.090;2022-10-31T07:36:05;17.80;;;8.85;;
37763;SDS011;23602;51.084;7.090;2022-10-31T07:38:31;19.95;;;9.50;;
37763;SDS011;23602;51.084;7.090;2022-10-31T07:40:56;15.65;;;9.05;;
37763;SDS011;23602;51.084;7.090;2022-10-31T07:43:22;23.08;;;9.57;;
37763;SDS011;23602;51.084;7.090;2022-10-31T07:45:51;18.95;;;8.73;;
37763;SDS011;23602;51.084;7.090;2022-10-31T07:48:17;16.65;;;8.95;;
37763;SDS011;23602;51.084;7.090;2022-10-31T07:50:43;18.83;;;9.10;;
37763;SDS011;23602;51.084;7.090;2022-10-31T07:53:12;13.40;;;8.38;;
37763;SDS011;23602;51.084;7.090;2022-10-31T07:55:38;15.95;;;9.10;;
37763;SDS011;23602;51.084;7.090;2022-10-31T07:58:14;12.88;;;8.95;;
37763;SDS011;23602;51.084;7.090;2022-10-31T08:00:41;17.40;;;9.20;;
37763;SDS011;23602;51.084;7.090;2022-10-31T08:03:09;18.38;;;9.18;;
37763;SDS011;23602;51.084;7.090;2022-10-31T08:08:02;16.20;;;8.65;;
37763;SDS011;23602;51.084;7.090;2022-10-31T08:10:30;16.05;;;8.90;;
37763;SDS011;23602;51.084;7.090;2022-10-31T08:13:04;16.73;;;8.85;;
37763;SDS011;23602;51.084;7.090;2022-10-31T08:15:30;20.08;;;9.85;;
37763;SDS011;23602;51.084;7.090;2022-10-31T08:17:56;13.57;;;7.72;;
37763;SDS011;23602;51.084;7.090;2022-10-31T08:20:22;17.77;;;8.13;;
37763;SDS011;23602;51.084;7.090;2022-10-31T08:22:58;13.75;;;6.93;;
37763;SDS011;23602;51.084;7.090;2022-10-31T08:25:25;16.50;;;7.80;;
37763;SDS011;23602;51.084;7.090;2022-10-31T08:27:52;14.20;;;7.97;;
37763;SDS011;23602;51.084;7.090;2022-10-31T08:30:19;16.38;;;8.38;;
37763;SDS011;23602;51.084;7.090;2022-10-31T08:32:46;17.42;;;9.20;;
37763;SDS011;23602;51.084;7.090;2022-10-31T08:35:11;17.02;;;8.70;;
37763;SDS011;23602;51.084;7.090;2022-10-31T08:37:37;14.82;;;8.07;;
37763;SDS011;23602;51.084;7.090;2022-10-31T08:40:03;20.17;;;8.52;;
37763;SDS011;23602;51.084;7.090;2022-10-31T08:42:28;14.75;;;8.88;;
37763;SDS011;23602;51.084;7.090;2022-10-31T08:44:54;16.95;;;8.60;;
37763;SDS011;23602;51.084;7.090;2022-10-31T08:47:19;14.73;;;8.52;;
37763;SDS011;23602;51.084;7.090;2022-10-31T08:49:44;23.52;;;11.35;;
37763;SDS011;23602;51.084;7.090;2022-10-31T08:52:10;16.58;;;8.32;;
37763;SDS011;23602;51.084;7.090;2022-10-31T08:54:35;15.98;;;7.93;;
37763;SDS011;23602;51.084;7.090;2022-10-31T08:57:00;16.33;;;8.55;;
37763;SDS011;23602;51.084;7.090;2022-10-31T08:59:26;22.65;;;11.57;;
37763;SDS011;23602;51.084;7.090;2022-10-31T09:01:51;17.90;;;8.70;;
37763;SDS011;23602;51.084;7.090;2022-10-31T09:04:16;16.08;;;8.98;;
37763;SDS011;23602;51.084;7.090;2022-10-31T09:06:41;17.10;;;7.97;;
37763;SDS011;23602;51.084;7.090;2022-10-31T09:09:07;17.58;;;8.45;;
37763;SDS011;23602;51.084;7.090;2022-10-31T09:11:32;21.08;;;9.13;;
37763;SDS011;23602;51.084;7.090;2022-10-31T09:13:57;19.00;;;10.00;;
37763;SDS011;23602;51.084;7.090;2022-10-31T09:16:23;14.77;;;8.75;;
37763;SDS011;23602;51.084;7.090;2022-10-31T09:18:48;17.10;;;8.90;;
37763;SDS011;23602;51.084;7.090;2022-10-31T09:21:13;22.42;;;11.43;;
37763;SDS011;23602;51.084;7.090;2022-10-31T09:23:39;24.60;;;11.38;;
37763;SDS011;23602;51.084;7.090;2022-10-31T09:26:04;22.77;;;10.40;;
37763;SDS011;23602;51.084;7.090;2022-10-31T09:28:30;18.65;;;8.88;;
37763;SDS011;23602;51.084;7.090;2022-10-31T09:30:56;27.30;;;12.18;;
37763;SDS011;23602;51.084;7.090;2022-10-31T09:33:22;22.08;;;9.93;;
37763;SDS011;23602;51.084;7.090;2022-10-31T09:35:47;22.55;;;10.13;;
37763;SDS011;23602;51.084;7.090;2022-10-31T09:38:14;20.83;;;10.57;;
37763;SDS011;23602;51.084;7.090;2022-10-31T09:43:34;18.73;;;9.57;;
37763;SDS011;23602;51.084;7.090;2022-10-31T09:51:19;18.70;;;10.05;;
37763;SDS011;23602;51.084;7.090;2022-10-31T09:53:59;17.83;;;10.02;;
37763;SDS011;23602;51.084;7.090;2022-10-31T09:56:44;20.98;;;9.98;;
37763;SDS011;23602;51.084;7.090;2022-10-31T09:59:13;17.83;;;9.13;;
37763;SDS011;23602;51.084;7.090;2022-10-31T10:04:46;18.85;;;8.77;;
37763;SDS011;23602;51.084;7.090;2022-10-31T10:07:22;15.50;;;9.25;;
37763;SDS011;23602;51.084;7.090;2022-10-31T10:10:59;24.58;;;10.35;;
37763;SDS011;23602;51.084;7.090;2022-10-31T10:16:03;25.25;;;9.60;;
37763;SDS011;23602;51.084;7.090;2022-10-31T10:23:51;23.02;;;8.95;;
37763;SDS011;23602;51.084;7.090;2022-10-31T10:26:20;21.77;;;8.23;;
37763;SDS011;23602;51.084;7.090;2022-10-31T10:28:57;17.50;;;8.93;;
37763;SDS011;23602;51.084;7.090;2022-10-31T10:31:31;23.95;;;9.45;;
37763;SDS011;23602;51.084;7.090;2022-10-31T10:36:56;14.77;;;7.05;;
37763;SDS011;23602;51.084;7.090;2022-10-31T10:41:53;18.02;;;7.88;;
37763;SDS011;23602;51.084;7.090;2022-10-31T10:44:45;15.52;;;7.82;;
37763;SDS011;23602;51.084;7.090;2022-10-31T10:47:34;19.23;;;7.30;;
37763;SDS011;23602;51.084;7.090;2022-10-31T10:50:14;16.52;;;7.78;;
37763;SDS011;23602;51.084;7.090;2022-10-31T10:52:47;12.52;;;6.70;;
37763;SDS011;23602;51.084;7.090;2022-10-31T10:55:27;19.02;;;7.25;;
37763;SDS011;23602;51.084;7.090;2022-10-31T10:58:03;14.80;;;6.97;;
37763;SDS011;23602;51.084;7.090;2022-10-31T11:00:36;12.80;;;6.10;;
37763;SDS011;23602;51.084;7.090;2022-10-31T11:03:04;15.75;;;6.28;;
37763;SDS011;23602;51.084;7.090;2022-10-31T11:05:41;13.00;;;5.75;;
37763;SDS011;23602;51.084;7.090;2022-10-31T11:08:11;17.00;;;7.25;;
37763;SDS011;23602;51.084;7.090;2022-10-31T11:10:58;11.75;;;5.55;;
37763;SDS011;23602;51.084;7.090;2022-10-31T11:13:25;13.18;;;6.95;;
37763;SDS011;23602;51.084;7.090;2022-10-31T11:15:57;19.17;;;7.30;;
37763;SDS011;23602;51.084;7.090;2022-10-31T11:18:27;11.98;;;5.25;;
37763;SDS011;23602;51.084;7.090;2022-10-31T11:20:56;12.90;;;5.93;;
37763;SDS011;23602;51.084;7.090;2022-10-31T11:23:24;15.10;;;5.80;;
37763;SDS011;23602;51.084;7.090;2022-10-31T11:25:58;19.80;;;5.55;;
37763;SDS011;23602;51.084;7.090;2022-10-31T11:28:26;17.90;;;6.57;;
37763;SDS011;23602;51.084;7.090;2022-10-31T11:30:55;11.77;;;5.45;;
37763;SDS011;23602;51.084;7.090;2022-10-31T11:33:24;17.15;;;6.28;;
37763;SDS011;23602;51.084;7.090;2022-10-31T11:35:54;10.60;;;5.25;;
37763;SDS011;23602;51.084;7.090;2022-10-31T11:38:21;9.65;;;5.22;;
37763;SDS011;23602;51.084;7.090;2022-10-31T11:41:09;30.23;;;5.97;;
37763;SDS011;23602;51.084;7.090;2022-10-31T11:43:38;12.50;;;5.38;;
37763;SDS011;23602;51.084;7.090;2022-10-31T11:46:11;12.27;;;4.68;;
37763;SDS011;23602;51.084;7.090;2022-10-31T11:48:46;12.52;;;4.93;;
37763;SDS011;23602;51.084;7.090;2022-10-31T11:51:19;12.77;;;5.47;;
37763;SDS011;23602;51.084;7.090;2022-10-31T11:53:52;14.25;;;5.28;;
37763;SDS011;23602;51.084;7.090;2022-10-31T11:56:20;10.88;;;4.70;;
37763;SDS011;23602;51.084;7.090;2022-10-31T11:58:59;13.93;;;4.78;;
37763;SDS011;23602;51.084;7.090;2022-10-31T12:01:28;11.10;;;4.30;;
37763;SDS011;23602;51.084;7.090;2022-10-31T12:06:42;17.90;;;5.53;;
37763;SDS011;23602;51.084;7.090;2022-10-31T12:09:14;14.45;;;4.75;;
37763;SDS011;23602;51.084;7.090;2022-10-31T12:11:48;11.98;;;4.43;;
37763;SDS011;23602;51.084;7.090;2022-10-31T12:17:14;13.15;;;3.78;;
37763;SDS011;23602;51.084;7.090;2022-10-31T12:36:29;13.10;;;4.65;;
37763;SDS011;23602;51.084;7.090;2022-10-31T12:47:51;9.63;;;4.38;;
37763;SDS011;23602;51.084;7.090;2022-10-31T12:59:27;11.30;;;4.45;;
37763;SDS011;23602;51.084;7.090;2022-10-31T13:01:55;13.27;;;3.95;;
37763;SDS011;23602;51.084;7.090;2022-10-31T13:10:16;14.20;;;4.28;;
37763;SDS011;23602;51.084;7.090;2022-10-31T13:12:47;12.18;;;4.15;;
37763;SDS011;23602;51.084;7.090;2022-10-31T13:15:17;9.35;;;4.50;;
37763;SDS011;23602;51.084;7.090;2022-10-31T13:17:47;11.15;;;4.70;;
37763;SDS011;23602;51.084;7.090;2022-10-31T13:22:51;14.02;;;4.70;;
37763;SDS011;23602;51.084;7.090;2022-10-31T13:25:28;9.38;;;3.70;;
37763;SDS011;23602;51.084;7.090;2022-10-31T13:28:00;6.53;;;3.50;;
37763;SDS011;23602;51.084;7.090;2022-10-31T13:30:38;11.07;;;4.45;;
37763;SDS011;23602;51.084;7.090;2022-10-31T13:33:13;11.43;;;4.32;;
37763;SDS011;23602;51.084;7.090;2022-10-31T13:36:19;8.02;;;4.10;;
37763;SDS011;23602;51.084;7.090;2022-10-31T13:38:52;12.90;;;4.43;;
37763;SDS011;23602;51.084;7.090;2022-10-31T13:47:00;11.65;;;4.15;;
37763;SDS011;23602;51.084;7.090;2022-10-31T13:54:35;13.98;;;4.53;;
37763;SDS011;23602;51.084;7.090;2022-10-31T13:57:15;9.82;;;4.00;;
37763;SDS011;23602;51.084;7.090;2022-10-31T14:02:21;9.35;;;4.40;;
37763;SDS011;23602;51.084;7.090;2022-10-31T14:07:27;9.65;;;4.50;;
37763;SDS011;23602;51.084;7.090;2022-10-31T14:12:30;10.20;;;4.75;;
37763;SDS011;23602;51.084;7.090;2022-10-31T14:15:05;13.50;;;4.97;;
37763;SDS011;23602;51.084;7.090;2022-10-31T14:20:24;11.23;;;3.95;;
37763;SDS011;23602;51.084;7.090;2022-10-31T14:22:56;14.45;;;3.70;;
37763;SDS011;23602;51.084;7.090;2022-10-31T14:25:31;10.45;;;3.90;;
37763;SDS011;23602;51.084;7.090;2022-10-31T14:27:59;14.10;;;4.15;;
37763;SDS011;23602;51.084;7.090;2022-10-31T14:30:27;12.60;;;4.10;;
37763;SDS011;23602;51.084;7.090;2022-10-31T14:32:57;12.82;;;3.63;;
37763;SDS011;23602;51.084;7.090;2022-10-31T14:35:28;11.55;;;3.80;;
37763;SDS011;23602;51.084;7.090;2022-10-31T14:51:47;13.05;;;3.60;;
37763;SDS011;23602;51.084;7.090;2022-10-31T14:54:17;18.13;;;4.18;;
37763;SDS011;23602;51.084;7.090;2022-10-31T14:56:49;13.77;;;3.78;;
37763;SDS011;23602;51.084;7.090;2022-10-31T14:59:19;19.85;;;4.18;;
37763;SDS011;23602;51.084;7.090;2022-10-31T15:01:54;11.10;;;4.43;;
37763;SDS011;23602;51.084;7.090;2022-10-31T15:04:27;12.23;;;3.63;;
37763;SDS011;23602;51.084;7.090;2022-10-31T15:06:58;15.98;;;4.15;;
37763;SDS011;23602;51.084;7.090;2022-10-31T15:09:30;13.90;;;3.65;;
37763;SDS011;23602;51.084;7.090;2022-10-31T15:11:58;9.13;;;3.25;;
37763;SDS011;23602;51.084;7.090;2022-10-31T15:14:26;11.25;;;4.30;;
37763;SDS011;23602;51.084;7.090;2022-10-31T15:17:01;13.07;;;3.38;;
37763;SDS011;23602;51.084;7.090;2022-10-31T15:19:28;15.77;;;3.92;;
37763;SDS011;23602;51.084;7.090;2022-10-31T15:21:57;10.75;;;3.67;;
37763;SDS011;23602;51.084;7.090;2022-10-31T15:24:32;13.38;;;3.53;;
37763;SDS011;23602;51.084;7.090;2022-10-31T15:27:00;14.43;;;3.80;;
37763;SDS011;23602;51.084;7.090;2022-10-31T15:29:26;14.93;;;4.28;;
37763;SDS011;23602;51.084;7.090;2022-10-31T15:31:55;10.00;;;3.35;;
37763;SDS011;23602;51.084;7.090;2022-10-31T15:34:22;9.45;;;3.40;;
37763;SDS011;23602;51.084;7.090;2022-10-31T15:37:12;7.25;;;2.95;;
37763;SDS011;23602;51.084;7.090;2022-10-31T15:39:39;10.23;;;3.25;;
37763;SDS011;23602;51.084;7.090;2022-10-31T15:42:13;8.20;;;3.20;;
37763;SDS011;23602;51.084;7.090;2022-10-31T15:45:00;14.07;;;3.60;;
37763;SDS011;23602;51.084;7.090;2022-10-31T15:47:29;13.10;;;3.45;;
37763;SDS011;23602;51.084;7.090;2022-10-31T15:49:57;14.65;;;4.82;;
37763;SDS011;23602;51.084;7.090;2022-10-31T15:57:42;12.90;;;4.35;;
37763;SDS011;23602;51.084;7.090;2022-10-31T16:02:47;7.05;;;3.22;;
37763;SDS011;23602;51.084;7.090;2022-10-31T16:05:16;8.73;;;3.17;;
37763;SDS011;23602;51.084;7.090;2022-10-31T16:07:51;10.13;;;3.60;;
37763;SDS011;23602;51.084;7.090;2022-10-31T16:10:21;9.15;;;3.58;;
37763;SDS011;23602;51.084;7.090;2022-10-31T16:12:48;13.15;;;3.67;;
37763;SDS011;23602;51.084;7.090;2022-10-31T16:15:15;11.30;;;3.63;;
37763;SDS011;23602;51.084;7.090;2022-10-31T16:17:42;12.10;;;3.30;;
37763;SDS011;23602;51.084;7.090;2022-10-31T16:20:25;11.43;;;4.28;;
37763;SDS011;23602;51.084;7.090;2022-10-31T16:22:52;14.07;;;3.55;;
37763;SDS011;23602;51.084;7.090;2022-10-31T16:25:40;14.68;;;3.90;;
37763;SDS011;23602;51.084;7.090;2022-10-31T16:28:12;10.15;;;3.60;;
37763;SDS011;23602;51.084;7.090;2022-10-31T16:30:45;9.57;;;4.05;;
37763;SDS011;23602;51.084;7.090;2022-10-31T16:33:31;15.82;;;4.07;;
37763;SDS011;23602;51.084;7.090;2022-10-31T16:36:28;9.95;;;3.83;;
37763;SDS011;23602;51.084;7.090;2022-10-31T16:38:52;15.30;;;4.45;;
37763;SDS011;23602;51.084;7.090;2022-10-31T16:41:18;16.10;;;4.03;;
37763;SDS011;23602;51.084;7.090;2022-10-31T16:43:53;11.77;;;3.20;;
37763;SDS011;23602;51.084;7.090;2022-10-31T16:46:21;9.68;;;3.58;;
37763;SDS011;23602;51.084;7.090;2022-10-31T16:48:49;20.80;;;4.35;;
37763;SDS011;23602;51.084;7.090;2022-10-31T16:51:15;9.70;;;4.10;;
37763;SDS011;23602;51.084;7.090;2022-10-31T16:53:40;15.50;;;3.30;;
37763;SDS011;23602;51.084;7.090;2022-10-31T16:56:06;12.45;;;3.78;;
37763;SDS011;23602;51.084;7.090;2022-10-31T16:58:46;12.80;;;3.15;;
37763;SDS011;23602;51.084;7.090;2022-10-31T17:01:12;10.98;;;3.97;;
37763;SDS011;23602;51.084;7.090;2022-10-31T17:03:38;10.00;;;3.33;;
37763;SDS011;23602;51.084;7.090;2022-10-31T17:06:04;6.10;;;3.20;;
37763;SDS011;23602;51.084;7.090;2022-10-31T17:08:32;9.82;;;4.28;;
37763;SDS011;23602;51.084;7.090;2022-10-31T17:10:58;9.68;;;3.65;;
37763;SDS011;23602;51.084;7.090;2022-10-31T17:13:27;18.00;;;4.15;;
37763;SDS011;23602;51.084;7.090;2022-10-31T17:15:55;13.77;;;3.17;;